Time;durP1;ratioP1;P1;durP2;ratioP2;P2;SDS_P1;SDS_P2;PMS_P1;PMS_P2;Temp;Humidity;BMP_temperature;BMP_pressure;BME280_temperature;BME280_humidity;BME280_pressure;Samples;Min_cycle;Max_cycle;Signal;HPM_P1;HPM_P2
2022/10/09 00:01:15;;;;;;;4.40;2.33;;;12.20;1.00;;;;;;5039693;28;20450;-82
2022/10/09 00:03:45;;;;;;;2.97;2.50;;;12.10;1.00;;;;;;5040236;28;20483;-81
2022/10/09 00:06:16;;;;;;;3.73;2.87;;;12.20;1.00;;;;;;5041421;28;20463;-82
2022/10/09 00:08:44;;;;;;;3.23;2.23;;;12.10;1.00;;;;;;5050016;28;20508;-81
2022/10/09 00:11:15;;;;;;;6.47;2.67;;;12.10;1.00;;;;;;5046947;28;20872;-82
2022/10/09 00:13:43;;;;;;;3.77;2.37;;;12.10;1.00;;;;;;5041122;28;20502;-81
2022/10/09 00:16:14;;;;;;;3.17;2.27;;;12.00;1.00;;;;;;5051112;28;20584;-82
2022/10/09 00:18:44;;;;;;;2.93;2.70;;;11.90;1.00;;;;;;5042555;28;20477;-83
2022/10/09 00:21:19;;;;;;;2.87;2.63;;;11.90;1.00;;;;;;5047861;28;20523;-83
2022/10/09 00:23:47;;;;;;;3.50;2.60;;;11.90;1.00;;;;;;5044996;28;20455;-82
2022/10/09 00:26:16;;;;;;;4.20;3.60;;;11.90;1.00;;;;;;5045527;28;20455;-82
2022/10/09 00:28:44;;;;;;;3.40;2.97;;;11.90;1.00;;;;;;5040495;28;20485;-82
2022/10/09 00:31:15;;;;;;;3.87;3.40;;;11.90;1.00;;;;;;5041285;28;20488;-81
2022/10/09 00:33:43;;;;;;;4.27;3.33;;;11.90;1.00;;;;;;5044852;28;20451;-81
2022/10/09 00:36:13;;;;;;;3.33;3.00;;;11.80;1.00;;;;;;5042136;28;20444;-80
2022/10/09 00:38:42;;;;;;;3.77;2.67;;;11.80;1.00;;;;;;5047732;28;20483;-80
2022/10/09 00:41:14;;;;;;;3.53;2.57;;;11.80;1.00;;;;;;5041920;28;20654;-81
2022/10/09 00:43:46;;;;;;;4.53;2.87;;;11.80;1.00;;;;;;5043071;28;20460;-80
2022/10/09 00:46:32;;;;;;;5.50;3.90;;;11.90;1.00;;;;;;5049181;28;20518;-82
2022/10/09 00:49:15;;;;;;;4.23;3.83;;;12.10;99.90;;;;;;5042838;28;20479;-82
2022/10/09 00:51:45;;;;;;;3.43;3.13;;;12.30;99.90;;;;;;5046004;28;20560;-82
2022/10/09 00:54:16;;;;;;;4.20;3.37;;;12.50;99.90;;;;;;5044759;28;20502;-80
2022/10/09 00:56:44;;;;;;;5.17;3.00;;;12.70;99.90;;;;;;5042651;28;20456;-83
2022/10/09 00:59:13;;;;;;;3.17;2.67;;;12.90;99.90;;;;;;5044718;28;20570;-83
2022/10/09 01:01:42;;;;;;;4.27;3.87;;;12.90;99.90;;;;;;5047453;28;20460;-83
2022/10/09 01:04:11;;;;;;;5.07;3.60;;;12.80;99.90;;;;;;5042696;28;20460;-81
2022/10/09 01:07:03;;;;;;;4.70;2.93;;;12.80;99.90;;;;;;5042169;28;20452;-81
2022/10/09 01:09:40;;;;;;;4.00;3.53;;;12.80;99.90;;;;;;5042155;28;20475;-83
2022/10/09 01:12:15;;;;;;;5.60;3.60;;;12.80;99.90;;;;;;5050281;28;20494;-83
2022/10/09 01:14:49;;;;;;;3.87;3.23;;;12.70;99.90;;;;;;5047019;28;20479;-81
2022/10/09 01:17:24;;;;;;;5.07;3.30;;;12.70;99.90;;;;;;5046729;28;20568;-82
2022/10/09 01:20:23;;;;;;;5.50;3.70;;;12.70;99.90;;;;;;5039956;28;21071;-82
2022/10/09 01:23:08;;;;;;;3.93;3.40;;;12.70;99.90;;;;;;5041428;28;21031;-81
2022/10/09 01:25:46;;;;;;;3.90;3.53;;;12.60;99.90;;;;;;5052037;28;20452;-81
2022/10/09 01:28:18;;;;;;;3.40;3.10;;;12.80;99.90;;;;;;5038293;28;20508;-81
2022/10/09 01:30:47;;;;;;;2.97;2.77;;;12.70;99.90;;;;;;5046002;28;20481;-81
2022/10/09 01:33:16;;;;;;;4.10;2.60;;;12.60;99.90;;;;;;5047099;28;20846;-81
2022/10/09 01:35:46;;;;;;;9.60;3.73;;;12.70;99.90;;;;;;5043550;28;20452;-81
2022/10/09 01:38:16;;;;;;;3.20;2.90;;;12.60;99.90;;;;;;5043012;28;20474;-81
2022/10/09 01:40:44;;;;;;;6.60;3.10;;;12.70;99.90;;;;;;5042591;28;20469;-80
2022/10/09 01:43:13;;;;;;;3.87;2.30;;;12.60;99.90;;;;;;5040753;28;20523;-79
2022/10/09 01:45:45;;;;;;;3.20;2.90;;;12.50;99.90;;;;;;5039213;28;20448;-80
2022/10/09 01:48:17;;;;;;;4.80;3.27;;;12.40;99.90;;;;;;5035820;28;20516;-80
2022/10/09 01:50:50;;;;;;;4.20;2.90;;;12.40;99.90;;;;;;5047353;28;20550;-81
2022/10/09 01:53:20;;;;;;;5.63;2.40;;;12.40;99.90;;;;;;5040303;28;21049;-81
2022/10/09 01:55:54;;;;;;;3.17;2.30;;;12.30;99.90;;;;;;5042269;28;20552;-81
2022/10/09 01:58:28;;;;;;;2.70;2.50;;;12.40;99.90;;;;;;5039119;28;21022;-81
2022/10/09 02:01:04;;;;;;;3.00;2.13;;;12.30;99.90;;;;;;5043995;28;20518;-80
2022/10/09 02:03:35;;;;;;;5.30;2.60;;;12.30;96.30;;;;;;5043350;28;21590;-80
2022/10/09 02:06:05;;;;;;;3.97;2.60;;;12.30;99.90;;;;;;5044133;28;20546;-80
2022/10/09 02:08:36;;;;;;;7.03;3.47;;;12.30;99.90;;;;;;5044117;28;20580;-81
2022/10/09 02:11:05;;;;;;;2.83;2.63;;;12.30;99.90;;;;;;5046080;28;20488;-80
2022/10/09 02:13:35;;;;;;;3.13;2.60;;;12.30;99.90;;;;;;5041699;28;20571;-80
2022/10/09 02:16:12;;;;;;;3.17;2.30;;;12.20;99.90;;;;;;5040766;28;20547;-80
2022/10/09 02:18:44;;;;;;;2.33;2.13;;;12.10;99.90;;;;;;5038081;28;20479;-80
2022/10/09 02:21:15;;;;;;;4.40;2.10;;;12.20;99.90;;;;;;5043697;28;20957;-82
2022/10/09 02:23:45;;;;;;;2.30;2.10;;;12.20;99.90;;;;;;5044007;28;20484;-82
2022/10/09 02:26:14;;;;;;;3.63;2.20;;;12.10;91.80;;;;;;5041060;28;20496;-82
2022/10/09 02:28:42;;;;;;;3.03;2.73;;;12.00;93.20;;;;;;5047446;28;20909;-82
2022/10/09 02:31:22;;;;;;;2.53;2.33;;;11.90;99.90;;;;;;5041007;28;20449;-80
2022/10/09 02:33:55;;;;;;;3.93;2.33;;;12.00;54.50;;;;;;5043105;28;21020;-82
2022/10/09 02:36:24;;;;;;;4.43;2.50;;;12.00;86.40;;;;;;5044695;28;20720;-81
2022/10/09 02:38:52;;;;;;;4.87;3.10;;;11.90;76.10;;;;;;5049306;28;20469;-81
2022/10/09 02:41:20;;;;;;;4.47;3.00;;;11.90;92.10;;;;;;5041683;28;20449;-82
2022/10/09 02:43:48;;;;;;;2.60;2.40;;;11.80;79.10;;;;;;5052355;28;20514;-80
2022/10/09 02:46:18;;;;;;;2.77;2.50;;;11.80;66.80;;;;;;5042830;28;21007;-82
2022/10/09 02:48:47;;;;;;;6.30;3.13;;;11.90;75.10;;;;;;5045281;28;20468;-81
2022/10/09 02:51:15;;;;;;;3.37;3.00;;;11.70;91.20;;;;;;5042172;28;20490;-81
2022/10/09 02:53:43;;;;;;;4.83;2.77;;;11.60;64.60;;;;;;5043862;28;20586;-80
2022/10/09 02:56:11;;;;;;;3.73;3.23;;;11.70;43.70;;;;;;5050742;28;20963;-82
2022/10/09 02:58:40;;;;;;;8.53;4.20;;;11.70;1.00;;;;;;5042298;28;21006;-81
2022/10/09 03:01:08;;;;;;;3.40;3.10;;;11.50;1.00;;;;;;5044577;28;20455;-81
2022/10/09 03:03:37;;;;;;;2.60;2.40;;;11.40;1.00;;;;;;5047559;28;20464;-81
2022/10/09 03:06:09;;;;;;;5.53;2.50;;;11.40;1.00;;;;;;5041920;28;20452;-82
2022/10/09 03:08:39;;;;;;;4.27;2.90;;;11.20;1.00;;;;;;5037385;28;20476;-81
2022/10/09 03:11:07;;;;;;;3.10;2.90;;;11.10;1.00;;;;;;5037109;28;20974;-82
2022/10/09 03:13:35;;;;;;;4.30;3.07;;;11.20;1.00;;;;;;5041495;28;20572;-81
2022/10/09 03:16:04;;;;;;;5.33;2.90;;;11.20;1.00;;;;;;5043599;28;20467;-81
2022/10/09 03:18:32;;;;;;;4.47;2.90;;;11.20;1.00;;;;;;5037798;28;20487;-82
2022/10/09 03:21:04;;;;;;;3.23;2.93;;;11.00;1.00;;;;;;5041760;28;20467;-82
2022/10/09 03:23:32;;;;;;;2.77;2.50;;;11.20;1.00;;;;;;5042689;28;20466;-80
2022/10/09 03:26:03;;;;;;;2.50;2.30;;;11.20;1.00;;;;;;5043968;28;20509;-82
2022/10/09 03:28:32;;;;;;;3.33;2.07;;;11.10;1.00;;;;;;5039786;28;20547;-82
2022/10/09 03:31:00;;;;;;;3.87;2.90;;;11.30;99.90;;;;;;5044842;28;20460;-82
2022/10/09 03:33:28;;;;;;;4.50;2.83;;;11.50;99.90;;;;;;5036614;28;20480;-83
2022/10/09 03:35:56;;;;;;;3.33;2.23;;;11.60;99.90;;;;;;5044734;28;20456;-81
2022/10/09 03:38:26;;;;;;;4.40;2.50;;;11.50;99.90;;;;;;5046367;28;20550;-82
2022/10/09 03:40:54;;;;;;;3.97;3.07;;;11.60;99.90;;;;;;5045993;28;21272;-81
2022/10/09 03:43:22;;;;;;;3.33;2.20;;;11.60;99.90;;;;;;5045405;28;20955;-82
2022/10/09 03:45:50;;;;;;;4.00;2.70;;;11.70;99.90;;;;;;5041443;28;20512;-82
2022/10/09 03:48:18;;;;;;;4.70;2.80;;;11.80;99.90;;;;;;5041590;28;20636;-81
2022/10/09 03:50:47;;;;;;;5.17;3.03;;;11.70;96.90;;;;;;5035070;28;20472;-80
2022/10/09 03:53:16;;;;;;;5.80;3.00;;;11.70;97.20;;;;;;5042175;28;20513;-82
2022/10/09 03:55:45;;;;;;;5.30;2.67;;;11.70;91.30;;;;;;5043227;28;20451;-82
2022/10/09 03:58:14;;;;;;;3.30;3.00;;;11.80;44.70;;;;;;5040548;28;20463;-82
2022/10/09 04:00:44;;;;;;;4.03;2.87;;;11.80;1.00;;;;;;5037143;28;20461;-82
2022/10/09 04:03:12;;;;;;;3.63;2.37;;;11.80;1.00;;;;;;5043668;28;20498;-82
2022/10/09 04:05:40;;;;;;;5.63;3.17;;;11.80;1.00;;;;;;5036219;28;20498;-81
2022/10/09 04:08:08;;;;;;;4.70;3.07;;;11.80;1.00;;;;;;5039320;28;20539;-82
2022/10/09 04:10:36;;;;;;;4.30;3.13;;;11.70;1.00;;;;;;5035573;28;20729;-81
2022/10/09 04:13:06;;;;;;;4.67;2.83;;;11.70;1.00;;;;;;5043538;28;20937;-82
2022/10/09 04:15:35;;;;;;;3.40;3.10;;;11.70;1.00;;;;;;5048544;28;20463;-83
2022/10/09 04:18:04;;;;;;;4.60;3.40;;;11.70;1.00;;;;;;5043103;28;20553;-81
2022/10/09 04:20:32;;;;;;;4.77;2.63;;;11.60;1.00;;;;;;5046272;28;21013;-82
2022/10/09 04:23:00;;;;;;;5.30;3.27;;;11.70;1.00;;;;;;5045746;28;20458;-82
2022/10/09 04:25:28;;;;;;;3.07;2.70;;;11.70;1.00;;;;;;5041980;28;21395;-83
2022/10/09 04:27:56;;;;;;;3.77;3.37;;;11.60;1.00;;;;;;5049662;28;20986;-81
2022/10/09 04:30:25;;;;;;;3.80;3.27;;;11.60;1.00;;;;;;5049173;28;20458;-81
2022/10/09 04:32:53;;;;;;;8.40;3.13;;;11.60;1.00;;;;;;5040731;28;20536;-81
2022/10/09 04:35:22;;;;;;;3.83;3.10;;;11.60;1.00;;;;;;5038610;28;20877;-81
2022/10/09 04:37:50;;;;;;;4.87;3.23;;;11.60;1.00;;;;;;5047840;28;20447;-82
2022/10/09 04:40:18;;;;;;;4.00;3.67;;;11.50;1.00;;;;;;5046257;28;20451;-81
2022/10/09 04:42:46;;;;;;;3.77;3.47;;;11.40;1.00;;;;;;5043625;28;20447;-82
2022/10/09 04:45:14;;;;;;;6.70;3.90;;;11.40;1.00;;;;;;5038932;28;20537;-82
2022/10/09 04:47:44;;;;;;;7.90;4.70;;;11.40;1.00;;;;;;5048516;28;20459;-82
2022/10/09 04:50:13;;;;;;;5.37;3.60;;;11.40;1.00;;;;;;5046581;28;20480;-81
2022/10/09 04:52:41;;;;;;;10.97;5.63;;;11.40;1.00;;;;;;5044872;28;20451;-81
2022/10/09 04:55:10;;;;;;;6.40;3.73;;;11.40;1.00;;;;;;5043882;28;20503;-82
2022/10/09 04:57:38;;;;;;;5.00;3.33;;;11.40;1.00;;;;;;5042279;28;20455;-82
2022/10/09 05:00:07;;;;;;;4.20;3.60;;;11.40;1.00;;;;;;5044343;28;20463;-82
2022/10/09 05:02:35;;;;;;;4.50;4.00;;;11.40;1.00;;;;;;5045549;28;20508;-82
2022/10/09 05:05:05;;;;;;;5.27;3.90;;;11.40;1.00;;;;;;5048911;28;20454;-82
2022/10/09 05:07:34;;;;;;;6.10;3.03;;;11.30;1.00;;;;;;5051916;28;20498;-83
2022/10/09 05:10:02;;;;;;;5.00;3.17;;;11.20;1.00;;;;;;5044141;28;20600;-83
2022/10/09 05:12:30;;;;;;;7.07;3.57;;;11.30;1.00;;;;;;5047664;28;20967;-83
2022/10/09 05:14:58;;;;;;;3.60;3.30;;;11.20;1.00;;;;;;5057265;28;20497;-82
2022/10/09 05:17:26;;;;;;;4.07;3.10;;;11.20;1.00;;;;;;5049232;28;20987;-82
2022/10/09 05:19:55;;;;;;;3.80;2.50;;;11.10;1.00;;;;;;5042196;28;20483;-82
2022/10/09 05:22:24;;;;;;;3.67;2.73;;;10.90;1.00;;;;;;5048354;28;20951;-81
2022/10/09 05:24:52;;;;;;;4.13;3.10;;;10.70;1.00;;;;;;5046071;28;20538;-83
2022/10/09 05:27:21;;;;;;;3.30;2.53;;;10.80;1.00;;;;;;5044079;28;20461;-82
2022/10/09 05:29:49;;;;;;;5.07;3.27;;;10.70;1.00;;;;;;5051251;28;20487;-82
2022/10/09 05:32:17;;;;;;;4.27;2.80;;;10.80;1.00;;;;;;5049997;28;20860;-83
2022/10/09 05:34:45;;;;;;;3.93;3.20;;;11.10;1.00;;;;;;5045596;28;20526;-83
2022/10/09 05:37:13;;;;;;;4.10;3.13;;;11.10;1.00;;;;;;5050840;28;20450;-83
2022/10/09 05:39:43;;;;;;;6.30;4.10;;;11.10;1.00;;;;;;5048573;28;20574;-82
2022/10/09 05:42:12;;;;;;;5.60;3.13;;;11.10;1.00;;;;;;5045538;28;20810;-81
2022/10/09 05:44:40;;;;;;;4.70;3.40;;;11.10;1.00;;;;;;5045291;28;20866;-81
2022/10/09 05:47:08;;;;;;;5.30;3.20;;;11.00;1.00;;;;;;5045721;28;20466;-81
2022/10/09 05:49:36;;;;;;;4.07;3.50;;;11.00;1.00;;;;;;5037789;28;20475;-81
2022/10/09 05:52:04;;;;;;;7.93;3.50;;;11.10;1.00;;;;;;5047868;28;20460;-81
2022/10/09 05:54:32;;;;;;;5.53;2.77;;;11.10;1.00;;;;;;5045203;28;20998;-83
2022/10/09 05:57:03;;;;;;;3.60;3.20;;;11.10;1.00;;;;;;5041504;28;20804;-79
2022/10/09 05:59:31;;;;;;;6.40;3.47;;;11.00;1.00;;;;;;5042594;28;20508;-80
2022/10/09 06:01:59;;;;;;;10.10;3.93;;;11.10;1.00;;;;;;5041849;28;20476;-80
2022/10/09 06:04:28;;;;;;;4.20;2.73;;;11.00;1.00;;;;;;5043935;28;20454;-80
2022/10/09 06:06:56;;;;;;;3.77;3.30;;;11.10;1.00;;;;;;5037125;28;20447;-80
2022/10/09 06:09:25;;;;;;;3.63;3.33;;;11.10;1.00;;;;;;5045425;28;20619;-81
2022/10/09 06:11:54;;;;;;;4.43;3.30;;;11.10;1.00;;;;;;5052859;28;20461;-80
2022/10/09 06:14:24;;;;;;;4.33;3.00;;;11.20;1.00;;;;;;5046903;28;20475;-80
2022/10/09 06:16:53;;;;;;;4.50;3.77;;;11.10;1.00;;;;;;5044081;28;20465;-79
2022/10/09 06:19:21;;;;;;;3.30;2.70;;;11.10;1.00;;;;;;5046706;28;20470;-80
2022/10/09 06:21:50;;;;;;;6.77;3.30;;;11.10;1.00;;;;;;5049330;28;20487;-80
2022/10/09 06:24:21;;;;;;;3.63;3.10;;;11.20;1.00;;;;;;5044288;28;20536;-81
2022/10/09 06:26:55;;;;;;;6.27;3.27;;;11.20;1.00;;;;;;5042013;28;20459;-82
2022/10/09 06:29:25;;;;;;;4.17;3.53;;;11.30;1.00;;;;;;5042775;28;20564;-83
2022/10/09 06:31:53;;;;;;;2.57;2.40;;;11.20;1.00;;;;;;5041939;28;20459;-83
2022/10/09 06:34:21;;;;;;;7.33;3.10;;;11.30;1.00;;;;;;5043358;28;20521;-84
2022/10/09 06:36:49;;;;;;;4.80;3.40;;;11.30;1.00;;;;;;5042289;28;21052;-83
2022/10/09 06:39:18;;;;;;;3.50;3.20;;;11.30;1.00;;;;;;5044369;28;20483;-84
2022/10/09 06:41:46;;;;;;;4.03;3.40;;;11.30;1.00;;;;;;5047079;28;20796;-85
2022/10/09 06:44:15;;;;;;;3.77;3.00;;;11.40;1.00;;;;;;5045095;28;20462;-85
2022/10/09 06:46:49;;;;;;;4.20;2.40;;;11.40;1.00;;;;;;5043456;28;20824;-82
2022/10/09 06:49:17;;;;;;;3.63;3.33;;;11.50;1.00;;;;;;5041916;28;20529;-83
2022/10/09 06:51:46;;;;;;;6.60;3.20;;;11.40;1.00;;;;;;5037338;28;20445;-83
2022/10/09 06:54:16;;;;;;;3.73;3.23;;;11.50;1.00;;;;;;5048494;28;20852;-83
2022/10/09 06:56:44;;;;;;;6.20;3.37;;;11.50;1.00;;;;;;5045218;28;20467;-83
2022/10/09 06:59:13;;;;;;;4.43;2.80;;;11.60;1.00;;;;;;5036397;28;20568;-83
2022/10/09 07:01:41;;;;;;;9.40;3.23;;;11.60;1.00;;;;;;5038206;28;20948;-83
2022/10/09 07:04:13;;;;;;;5.07;3.33;;;11.70;1.00;;;;;;5046101;28;20467;-83
2022/10/09 07:06:43;;;;;;;3.33;3.10;;;11.80;1.00;;;;;;5048849;28;20829;-84
2022/10/09 07:09:12;;;;;;;3.60;3.30;;;12.00;1.00;;;;;;5047625;28;20525;-83
2022/10/09 07:11:43;;;;;;;2.90;2.70;;;12.00;1.00;;;;;;5041989;28;20452;-84
2022/10/09 07:14:13;;;;;;;2.80;2.60;;;12.20;1.00;;;;;;5040930;28;20955;-83
2022/10/09 07:16:43;;;;;;;4.37;3.10;;;12.30;1.00;;;;;;5041237;28;20481;-84
2022/10/09 07:19:14;;;;;;;6.50;2.87;;;12.30;1.00;;;;;;5040710;28;20591;-83
2022/10/09 07:21:44;;;;;;;3.60;3.30;;;12.20;1.00;;;;;;5037344;28;20481;-83
2022/10/09 07:24:13;;;;;;;3.20;2.93;;;12.30;1.00;;;;;;5038602;28;20831;-83
2022/10/09 07:26:44;;;;;;;3.10;2.57;;;12.40;1.00;;;;;;5043079;28;20560;-82
2022/10/09 07:29:15;;;;;;;4.10;2.93;;;12.50;1.00;;;;;;5044738;28;20480;-83
2022/10/09 07:31:44;;;;;;;3.70;2.70;;;12.70;1.00;;;;;;5038673;28;20462;-83
2022/10/09 07:34:13;;;;;;;4.10;2.60;;;13.00;1.00;;;;;;5044879;28;20458;-83
2022/10/09 07:36:42;;;;;;;9.23;3.43;;;13.40;99.90;;;;;;5040896;28;20477;-84
2022/10/09 07:39:10;;;;;;;4.13;2.87;;;13.80;99.90;;;;;;5044205;28;20486;-83
2022/10/09 07:41:38;;;;;;;4.37;2.80;;;14.10;99.90;;;;;;5037057;28;21147;-83
2022/10/09 07:44:07;;;;;;;4.30;2.77;;;14.40;99.90;;;;;;5038538;28;20463;-83
2022/10/09 07:46:35;;;;;;;8.10;3.03;;;14.80;99.90;;;;;;5036333;28;20458;-84
2022/10/09 07:49:04;;;;;;;3.40;3.10;;;15.10;99.90;;;;;;5046538;28;20997;-83
2022/10/09 07:51:34;;;;;;;3.30;2.70;;;15.40;99.90;;;;;;5046878;28;20452;-83
2022/10/09 07:54:02;;;;;;;3.90;2.70;;;15.40;99.90;;;;;;5045580;28;20467;-83
2022/10/09 07:56:32;;;;;;;2.83;2.53;;;15.80;99.90;;;;;;5047257;28;20492;-83
2022/10/09 07:59:02;;;;;;;8.23;3.27;;;16.30;99.90;;;;;;5039094;28;20564;-87
2022/10/09 08:01:32;;;;;;;3.00;2.60;;;16.90;99.90;;;;;;5045485;28;20470;-85
2022/10/09 08:04:01;;;;;;;3.50;2.90;;;17.20;99.90;;;;;;5042225;28;20458;-85
2022/10/09 08:06:30;;;;;;;3.77;2.73;;;17.50;99.90;;;;;;5044895;28;20464;-83
2022/10/09 08:09:01;;;;;;;3.83;2.73;;;18.00;99.90;;;;;;5048774;28;20577;-84
2022/10/09 08:11:30;;;;;;;4.27;2.97;;;18.50;99.90;;;;;;5049542;28;20458;-85
2022/10/09 08:13:59;;;;;;;3.33;2.70;;;18.90;99.90;;;;;;5045940;28;20518;-81
2022/10/09 08:16:28;;;;;;;3.57;3.03;;;19.40;99.90;;;;;;5042982;28;20537;-83
2022/10/09 08:18:57;;;;;;;3.27;2.97;;;19.50;99.90;;;;;;5041929;28;20502;-83
2022/10/09 08:21:26;;;;;;;3.13;2.50;;;20.00;99.90;;;;;;5044338;28;20521;-81
2022/10/09 08:23:56;;;;;;;6.10;2.60;;;20.30;99.90;;;;;;5043602;28;20939;-84
2022/10/09 08:26:27;;;;;;;4.93;2.40;;;20.60;99.90;;;;;;5045291;28;20473;-87
2022/10/09 08:28:57;;;;;;;3.87;2.60;;;21.30;99.90;;;;;;5043498;28;21074;-83
2022/10/09 08:31:26;;;;;;;1.67;1.57;;;21.80;99.90;;;;;;5043160;28;20455;-83
2022/10/09 08:33:55;;;;;;;3.17;2.07;;;21.90;99.90;;;;;;5045356;28;20440;-85
2022/10/09 08:36:24;;;;;;;5.17;2.50;;;22.40;99.90;;;;;;5038501;28;20535;-83
2022/10/09 08:38:52;;;;;;;5.80;2.50;;;23.40;99.90;;;;;;5046382;28;20475;-83
2022/10/09 08:41:32;;;;;;;2.30;2.10;;;23.60;99.90;;;;;;5043644;28;20559;-83
2022/10/09 08:44:04;;;;;;;2.17;2.07;;;24.10;99.90;;;;;;5044017;28;20450;-85
2022/10/09 08:46:45;;;;;;;2.67;2.47;;;24.90;99.90;;;;;;5045529;28;20459;-86
2022/10/09 08:49:22;;;;;;;3.30;2.10;;;25.50;99.90;;;;;;5048980;28;20493;-84
2022/10/09 08:51:51;;;;;;;2.30;2.10;;;25.80;99.90;;;;;;5046504;28;20504;-86
2022/10/09 08:54:26;;;;;;;4.53;2.00;;;26.10;99.90;;;;;;5046310;28;21359;-87
2022/10/09 08:56:55;;;;;;;4.23;2.17;;;26.20;99.90;;;;;;5040506;28;20507;-86
2022/10/09 08:59:24;;;;;;;2.33;1.93;;;26.50;99.90;;;;;;5050995;28;20467;-85
2022/10/09 09:02:02;;;;;;;2.60;2.03;;;26.70;99.90;;;;;;5048385;28;20439;-84
2022/10/09 09:05:01;;;;;;;3.00;1.90;;;27.10;99.90;;;;;;5052403;28;20450;-85
2022/10/09 09:07:37;;;;;;;2.40;1.93;;;27.10;99.90;;;;;;5033275;28;21037;-87
2022/10/09 09:10:14;;;;;;;3.80;2.00;;;27.90;99.90;;;;;;5046817;28;20475;-86
2022/10/09 09:12:50;;;;;;;4.23;2.00;;;28.50;99.90;;;;;;5047139;28;21226;-85
2022/10/09 09:15:43;;;;;;;2.63;1.67;;;29.10;99.90;;;;;;5046770;28;21244;-84
2022/10/09 09:18:29;;;;;;;2.13;1.80;;;29.40;99.90;;;;;;5048523;28;20487;-85
2022/10/09 09:21:04;;;;;;;2.93;1.80;;;30.10;99.90;;;;;;5048569;28;20506;-86
2022/10/09 09:23:39;;;;;;;2.50;1.73;;;30.00;99.90;;;;;;5047579;28;20954;-82
2022/10/09 09:26:13;;;;;;;7.43;2.37;;;29.90;99.90;;;;;;5053036;28;20492;-83
2022/10/09 09:28:44;;;;;;;2.47;1.60;;;29.60;99.90;;;;;;5045168;28;20533;-83
2022/10/09 09:31:17;;;;;;;2.30;1.70;;;30.30;99.90;;;;;;5050529;28;20467;-84
2022/10/09 09:33:53;;;;;;;1.73;1.60;;;30.50;99.90;;;;;;5051380;28;20506;-85
2022/10/09 09:36:24;;;;;;;2.50;1.77;;;30.10;99.90;;;;;;5050797;28;20460;-85
2022/10/09 09:38:53;;;;;;;1.90;1.70;;;30.10;99.90;;;;;;5056737;28;20479;-86
2022/10/09 09:41:44;;;;;;;2.47;1.60;;;30.10;99.90;;;;;;5049387;28;20455;-85
2022/10/09 09:44:16;;;;;;;2.93;1.67;;;28.60;99.90;;;;;;5043000;28;20463;-85
2022/10/09 09:46:47;;;;;;;2.67;1.80;;;28.10;99.90;;;;;;5052028;28;21131;-86
2022/10/09 09:49:17;;;;;;;1.80;1.57;;;28.40;99.90;;;;;;5043878;28;21386;-83
2022/10/09 09:51:47;;;;;;;3.30;1.90;;;28.40;99.90;;;;;;5051388;28;20464;-83
2022/10/09 09:54:19;;;;;;;2.70;1.67;;;28.20;99.90;;;;;;5048949;28;20453;-85
2022/10/09 09:56:49;;;;;;;3.40;2.00;;;27.90;99.90;;;;;;5048547;28;20656;-85
2022/10/09 09:59:40;;;;;;;5.90;2.03;;;28.30;99.90;;;;;;5042408;28;20482;-84
2022/10/09 10:02:13;;;;;;;2.80;1.90;;;28.90;99.90;;;;;;5044455;28;20967;-85
2022/10/09 10:04:50;;;;;;;2.40;1.80;;;29.60;99.90;;;;;;5048860;28;20479;-83
2022/10/09 10:07:32;;;;;;;1.83;1.70;;;29.40;99.90;;;;;;5051166;28;20453;-87
2022/10/09 10:10:14;;;;;;;3.57;1.60;;;30.50;99.90;;;;;;5045470;28;20533;-86
2022/10/09 10:12:44;;;;;;;1.70;1.60;;;32.00;99.90;;;;;;5043054;28;20459;-85
2022/10/09 10:15:20;;;;;;;1.60;1.50;;;31.60;99.90;;;;;;5051099;28;20453;-87
2022/10/09 10:17:55;;;;;;;2.27;1.63;;;33.00;99.90;;;;;;5057017;28;21109;-87
2022/10/09 10:20:24;;;;;;;2.13;1.33;;;33.10;99.90;;;;;;5043927;28;20942;-84
2022/10/09 10:22:55;;;;;;;2.70;2.00;;;34.10;99.90;;;;;;5042354;28;20452;-85
2022/10/09 10:25:27;;;;;;;1.70;1.50;;;34.60;99.90;;;;;;5049978;28;20462;-86
2022/10/09 10:28:00;;;;;;;2.60;1.63;;;34.70;99.90;;;;;;5045850;28;20798;-85
2022/10/09 10:30:31;;;;;;;2.60;1.80;;;35.40;99.90;;;;;;5043895;28;20447;-85
2022/10/09 10:33:04;;;;;;;1.60;1.37;;;36.50;99.90;;;;;;5046578;28;20455;-85
2022/10/09 10:35:35;;;;;;;1.47;1.37;;;36.90;99.90;;;;;;5040477;28;20452;-85
2022/10/09 10:38:12;;;;;;;2.30;1.43;;;37.30;99.90;;;;;;5051381;28;20471;-83
2022/10/09 10:40:45;;;;;;;2.07;1.77;;;36.90;99.90;;;;;;5050053;28;21357;-83
2022/10/09 10:43:29;;;;;;;2.00;1.30;;;37.80;99.90;;;;;;5055150;28;20578;-84
2022/10/09 10:46:06;;;;;;;1.77;1.40;;;38.90;99.90;;;;;;5053536;28;20462;-84
2022/10/09 10:48:40;;;;;;;2.67;1.30;;;39.10;99.90;;;;;;5061111;28;21044;-85
2022/10/09 10:51:25;;;;;;;1.47;1.33;;;39.20;99.90;;;;;;5042286;28;20452;-86
2022/10/09 10:54:08;;;;;;;2.53;1.53;;;38.40;99.90;;;;;;5051375;28;20484;-85
2022/10/09 10:56:40;;;;;;;1.27;1.17;;;37.50;99.90;;;;;;5046214;28;20941;-83
2022/10/09 10:59:32;;;;;;;1.93;1.50;;;37.50;99.90;;;;;;5045353;28;20501;-86
2022/10/09 11:02:25;;;;;;;1.50;1.40;;;38.60;99.90;;;;;;5048445;28;20507;-85
2022/10/09 11:04:57;;;;;;;1.33;1.27;;;37.70;99.90;;;;;;5047616;28;20451;-84
2022/10/09 11:07:33;;;;;;;2.20;1.20;;;33.10;99.90;;;;;;5049004;28;20451;-83
2022/10/09 11:10:11;;;;;;;3.03;1.17;;;33.00;99.90;;;;;;5046902;28;20489;-82
2022/10/09 11:12:48;;;;;;;1.80;1.20;;;30.80;99.90;;;;;;5044290;28;20823;-83
2022/10/09 11:15:29;;;;;;;1.60;1.30;;;28.50;99.90;;;;;;5051942;28;20457;-84
2022/10/09 11:18:16;;;;;;;1.23;1.10;;;26.70;99.90;;;;;;5060428;28;20481;-84
2022/10/09 11:20:57;;;;;;;2.13;1.30;;;25.60;99.90;;;;;;5050988;28;20537;-83
2022/10/09 11:23:43;;;;;;;1.47;1.33;;;24.30;90.10;;;;;;5047566;28;20455;-84
2022/10/09 11:26:22;;;;;;;2.63;1.20;;;24.20;88.70;;;;;;5052993;28;20461;-84
2022/10/09 11:28:55;;;;;;;3.00;1.53;;;23.90;85.70;;;;;;5053909;28;20475;-84
2022/10/09 11:31:29;;;;;;;1.30;1.20;;;23.60;81.60;;;;;;5046179;28;20460;-84
2022/10/09 11:34:04;;;;;;;2.70;1.17;;;23.20;75.50;;;;;;5044328;28;20457;-83
2022/10/09 11:36:37;;;;;;;1.53;1.07;;;22.30;61.80;;;;;;5044945;28;21006;-85
2022/10/09 11:39:10;;;;;;;1.30;1.20;;;22.50;67.50;;;;;;5039563;28;20494;-83
2022/10/09 11:41:39;;;;;;;5.57;1.40;;;22.40;64.80;;;;;;5040284;28;20467;-84
2022/10/09 11:44:27;;;;;;;1.93;1.23;;;22.80;72.10;;;;;;5045989;28;20444;-85
2022/10/09 11:47:03;;;;;;;2.97;1.17;;;22.70;71.20;;;;;;5040461;28;20448;-82
2022/10/09 11:49:48;;;;;;;1.30;1.20;;;23.10;78.50;;;;;;5043982;28;21050;-83
2022/10/09 11:52:25;;;;;;;1.33;1.23;;;22.90;76.50;;;;;;5041886;28;20448;-83
2022/10/09 11:54:53;;;;;;;1.90;1.40;;;22.80;75.40;;;;;;5041074;28;20451;-83
2022/10/09 11:57:28;;;;;;;2.30;1.20;;;22.70;72.20;;;;;;5043953;28;20478;-83
2022/10/09 12:00:06;;;;;;;1.37;1.27;;;22.70;74.50;;;;;;5039630;28;20467;-85
2022/10/09 12:02:36;;;;;;;1.70;1.30;;;22.70;75.90;;;;;;5057027;28;20494;-83
2022/10/09 12:05:19;;;;;;;2.93;1.33;;;22.80;75.70;;;;;;5042337;28;20464;-83
2022/10/09 12:07:47;;;;;;;2.10;1.27;;;22.70;76.00;;;;;;5044431;28;20456;-84
2022/10/09 12:10:27;;;;;;;3.27;1.40;;;22.70;77.60;;;;;;5038534;28;20478;-83
2022/10/09 12:13:01;;;;;;;1.53;1.20;;;22.60;79.30;;;;;;5043266;28;20451;-83
2022/10/09 12:15:39;;;;;;;1.83;1.23;;;22.50;76.30;;;;;;5042875;28;20451;-83
2022/10/09 12:18:21;;;;;;;1.40;1.23;;;22.40;73.50;;;;;;5049401;28;20490;-83
2022/10/09 12:20:53;;;;;;;2.00;1.10;;;22.40;75.80;;;;;;5052156;28;20451;-85
2022/10/09 12:23:25;;;;;;;1.20;1.10;;;22.60;77.30;;;;;;5050163;28;20440;-84
2022/10/09 12:25:56;;;;;;;1.40;1.13;;;22.50;76.10;;;;;;5041266;28;20459;-83
2022/10/09 12:28:29;;;;;;;2.10;1.00;;;22.20;72.20;;;;;;5047892;28;20475;-83
2022/10/09 12:31:00;;;;;;;2.70;1.10;;;22.10;71.00;;;;;;5048260;28;20442;-83
2022/10/09 12:33:34;;;;;;;1.87;1.03;;;22.10;69.60;;;;;;5050221;28;20543;-85
2022/10/09 12:36:10;;;;;;;1.47;1.17;;;21.80;65.60;;;;;;5043140;28;20509;-84
2022/10/09 12:38:39;;;;;;;2.07;1.03;;;21.90;66.70;;;;;;5050063;28;20578;-86
2022/10/09 12:41:13;;;;;;;3.00;2.13;;;22.10;72.80;;;;;;5053419;28;20446;-84
2022/10/09 12:43:48;;;;;;;1.77;1.10;;;22.00;68.80;;;;;;5038916;28;20470;-84
2022/10/09 12:46:26;;;;;;;2.30;1.33;;;21.90;68.30;;;;;;5049497;28;20447;-84
2022/10/09 12:48:54;;;;;;;1.53;1.07;;;21.80;68.80;;;;;;5052806;28;20514;-85
2022/10/09 12:51:27;;;;;;;1.60;1.20;;;21.60;64.70;;;;;;5051922;28;20447;-85
2022/10/09 12:53:55;;;;;;;1.20;1.10;;;21.60;63.80;;;;;;5054020;28;20477;-84
2022/10/09 12:56:28;;;;;;;2.63;1.07;;;21.80;67.20;;;;;;5049031;28;20969;-85
2022/10/09 12:58:58;;;;;;;2.47;1.73;;;21.90;71.40;;;;;;5044731;28;20640;-85
2022/10/09 13:01:27;;;;;;;1.70;1.00;;;21.70;66.20;;;;;;5044775;28;20532;-87
2022/10/09 13:03:56;;;;;;;1.20;1.10;;;21.70;68.60;;;;;;5047694;28;20475;-85
2022/10/09 13:06:27;;;;;;;2.70;1.10;;;21.80;69.90;;;;;;5054903;28;20852;-84
2022/10/09 13:08:59;;;;;;;1.43;1.20;;;22.00;75.00;;;;;;5052048;28;20498;-86
2022/10/09 13:11:33;;;;;;;1.53;1.30;;;21.80;70.10;;;;;;5043709;28;20440;-86
2022/10/09 13:14:01;;;;;;;1.83;1.10;;;22.00;72.70;;;;;;5049971;28;20481;-85